Time;durP1;ratioP1;P1;durP2;ratioP2;P2;SDS_P1;SDS_P2;PMS_P1;PMS_P2;Temp;Humidity;BMP_temperature;BMP_pressure;BME280_temperature;BME280_humidity;BME280_pressure;Samples;Min_cycle;Max_cycle;Signal;HPM_P1;HPM_P2
2023/10/22 00:00:19;;;;;;;0.60;0.60;;;;;;;;;;4998550;28;20336;-61
2023/10/22 00:02:48;;;;;;;0.70;0.50;;;;;;;;;;4998470;28;20490;-61
2023/10/22 00:05:16;;;;;;;0.60;0.50;;;;;;;;;;4998213;28;20218;-61
2023/10/22 00:07:43;;;;;;;1.27;0.70;;;;;;;;;;4998252;28;20534;-61
2023/10/22 00:10:11;;;;;;;0.60;0.60;;;;;;;;;;4998329;28;20582;-61
2023/10/22 00:12:38;;;;;;;0.57;0.50;;;;;;;;;;4998633;28;20213;-61
2023/10/22 00:15:06;;;;;;;0.60;0.50;;;;;;;;;;4997876;28;20301;-61
2023/10/22 00:17:34;;;;;;;0.57;0.40;;;;;;;;;;4996263;28;20505;-61
2023/10/22 00:20:03;;;;;;;0.60;0.57;;;;;;;;;;4980073;28;20277;-61
2023/10/22 00:22:31;;;;;;;0.80;0.70;;;;;;;;;;4980076;28;20208;-61
2023/10/22 00:24:59;;;;;;;0.60;0.60;;;;;;;;;;4998162;28;20218;-61
2023/10/22 00:27:27;;;;;;;0.60;0.50;;;;;;;;;;5008797;28;20238;-61
2023/10/22 00:29:54;;;;;;;0.80;0.50;;;;;;;;;;5003027;28;20203;-61
2023/10/22 00:32:22;;;;;;;0.70;0.50;;;;;;;;;;4997824;28;20249;-61
2023/10/22 00:34:49;;;;;;;0.70;0.63;;;;;;;;;;4998000;28;20238;-61
2023/10/22 00:37:18;;;;;;;0.50;0.50;;;;;;;;;;4997828;28;20297;-61
2023/10/22 00:39:45;;;;;;;0.45;0.45;;;;;;;;;;4997536;28;20230;-61
2023/10/22 00:42:13;;;;;;;0.60;0.50;;;;;;;;;;4997899;28;20203;-61
2023/10/22 00:44:41;;;;;;;0.55;0.50;;;;;;;;;;4997785;28;20211;-61
2023/10/22 00:47:09;;;;;;;1.95;0.50;;;;;;;;;;4997689;28;20207;-61
2023/10/22 00:49:36;;;;;;;0.40;0.40;;;;;;;;;;4996775;28;20242;-60
2023/10/22 00:52:04;;;;;;;0.50;0.50;;;;;;;;;;4997900;28;20207;-61
2023/10/22 00:54:33;;;;;;;0.50;0.50;;;;;;;;;;4997821;28;20217;-61
2023/10/22 00:57:01;;;;;;;0.60;0.50;;;;;;;;;;4998183;28;20214;-62
2023/10/22 00:59:29;;;;;;;0.57;0.57;;;;;;;;;;4996734;28;20450;-61
2023/10/22 01:01:56;;;;;;;0.40;0.40;;;;;;;;;;4997313;28;20231;-61
2023/10/22 01:04:24;;;;;;;0.55;0.50;;;;;;;;;;4997411;28;20209;-61
2023/10/22 01:06:51;;;;;;;0.82;0.60;;;;;;;;;;4999921;28;20289;-61
2023/10/22 01:09:20;;;;;;;0.40;0.40;;;;;;;;;;5000638;28;20579;-61
2023/10/22 01:12:02;;;;;;;1.27;0.50;;;;;;;;;;5017806;28;20199;-61
2023/10/22 01:14:30;;;;;;;0.60;0.60;;;;;;;;;;5001439;28;20305;-61
2023/10/22 01:16:57;;;;;;;0.40;0.40;;;;;;;;;;5001077;28;20207;-61
2023/10/22 01:19:25;;;;;;;0.60;0.50;;;;;;;;;;5000639;28;20605;-61
2023/10/22 01:21:52;;;;;;;0.60;0.50;;;;;;;;;;5001801;28;20353;-61
2023/10/22 01:24:22;;;;;;;0.60;0.35;;;;;;;;;;5001333;28;20601;-61
2023/10/22 01:26:49;;;;;;;0.68;0.47;;;;;;;;;;5000779;28;20242;-61
2023/10/22 01:29:17;;;;;;;0.75;0.50;;;;;;;;;;5000745;28;20289;-61
2023/10/22 01:31:44;;;;;;;0.40;0.40;;;;;;;;;;5019907;28;20210;-61
2023/10/22 01:34:12;;;;;;;0.40;0.30;;;;;;;;;;5020700;28;20216;-61
2023/10/22 01:36:41;;;;;;;0.60;0.50;;;;;;;;;;5020895;28;20214;-61
2023/10/22 01:39:13;;;;;;;0.70;0.40;;;;;;;;;;5015238;28;20211;-61
2023/10/22 01:41:42;;;;;;;0.52;0.52;;;;;;;;;;5000267;28;20223;-61
2023/10/22 01:44:09;;;;;;;1.13;0.40;;;;;;;;;;5001031;28;20306;-61
2023/10/22 01:46:37;;;;;;;0.32;0.32;;;;;;;;;;5000882;28;20568;-61
2023/10/22 01:49:04;;;;;;;0.52;0.40;;;;;;;;;;5001087;28;20686;-61
2023/10/22 01:51:32;;;;;;;0.40;0.40;;;;;;;;;;5018554;28;20226;-61
2023/10/22 01:54:01;;;;;;;0.50;0.50;;;;;;;;;;5008134;28;20206;-61
2023/10/22 01:56:28;;;;;;;0.40;0.40;;;;;;;;;;5000756;28;20202;-61
2023/10/22 01:58:57;;;;;;;0.50;0.50;;;;;;;;;;5001123;28;20207;-61
2023/10/22 02:01:26;;;;;;;0.40;0.40;;;;;;;;;;4999933;28;20262;-61
2023/10/22 02:03:54;;;;;;;0.73;0.57;;;;;;;;;;5000373;28;20250;-61
2023/10/22 02:06:22;;;;;;;0.50;0.38;;;;;;;;;;5000419;28;20203;-61
2023/10/22 02:08:49;;;;;;;0.63;0.50;;;;;;;;;;5000802;28;20207;-61
2023/10/22 02:11:17;;;;;;;0.50;0.50;;;;;;;;;;4999847;28;20238;-61
2023/10/22 02:13:44;;;;;;;0.50;0.43;;;;;;;;;;5000689;28;20211;-61
2023/10/22 02:16:13;;;;;;;0.40;0.40;;;;;;;;;;5000294;28;20285;-61
2023/10/22 02:18:41;;;;;;;0.32;0.32;;;;;;;;;;5000419;28;20218;-61
2023/10/22 02:21:08;;;;;;;0.30;0.22;;;;;;;;;;4998906;28;20326;-61
2023/10/22 02:23:36;;;;;;;0.40;0.40;;;;;;;;;;5000337;28;20207;-61
2023/10/22 02:26:05;;;;;;;0.70;0.30;;;;;;;;;;5000563;28;20298;-61
2023/10/22 02:28:33;;;;;;;0.40;0.40;;;;;;;;;;5000124;28;20627;-61
2023/10/22 02:31:01;;;;;;;0.90;0.47;;;;;;;;;;4999356;28;20206;-61
2023/10/22 02:33:30;;;;;;;0.50;0.47;;;;;;;;;;5000064;28;20771;-61
2023/10/22 02:35:58;;;;;;;0.52;0.40;;;;;;;;;;4999856;28;20203;-61
2023/10/22 02:38:25;;;;;;;0.40;0.30;;;;;;;;;;5000056;28;20301;-61
2023/10/22 02:40:53;;;;;;;0.60;0.60;;;;;;;;;;4998832;28;20619;-61
2023/10/22 02:43:21;;;;;;;0.98;0.55;;;;;;;;;;4999948;28;20253;-61
2023/10/22 02:45:51;;;;;;;0.45;0.40;;;;;;;;;;5000270;28;20273;-61
2023/10/22 02:48:19;;;;;;;0.40;0.30;;;;;;;;;;4999890;28;20207;-61
2023/10/22 02:50:48;;;;;;;0.50;0.40;;;;;;;;;;4998977;28;20207;-61
2023/10/22 02:53:16;;;;;;;0.45;0.45;;;;;;;;;;4999562;28;20305;-61
2023/10/22 02:55:44;;;;;;;0.70;0.47;;;;;;;;;;4999802;28;20221;-61
2023/10/22 02:58:11;;;;;;;0.63;0.50;;;;;;;;;;5000042;28;20257;-61
2023/10/22 03:00:39;;;;;;;0.38;0.38;;;;;;;;;;4998681;28;20301;-61
2023/10/22 03:03:07;;;;;;;0.40;0.40;;;;;;;;;;4999654;28;20521;-61
2023/10/22 03:05:36;;;;;;;0.93;0.30;;;;;;;;;;4999654;28;20206;-61
2023/10/22 03:08:05;;;;;;;0.70;0.40;;;;;;;;;;4999314;28;20253;-61
2023/10/22 03:10:33;;;;;;;0.57;0.40;;;;;;;;;;4997953;28;20218;-61
2023/10/22 03:13:01;;;;;;;0.30;0.30;;;;;;;;;;4999392;28;20210;-61
2023/10/22 03:15:28;;;;;;;0.45;0.40;;;;;;;;;;4998968;28;20234;-61
2023/10/22 03:17:56;;;;;;;0.68;0.47;;;;;;;;;;4999067;28;20207;-61
2023/10/22 03:20:24;;;;;;;0.45;0.30;;;;;;;;;;5007635;28;20207;-61
2023/10/22 03:22:51;;;;;;;0.35;0.35;;;;;;;;;;5018811;28;20206;-61
2023/10/22 03:25:23;;;;;;;0.40;0.40;;;;;;;;;;5018979;28;20252;-61
2023/10/22 03:27:50;;;;;;;0.68;0.50;;;;;;;;;;5007425;28;20270;-61
2023/10/22 03:30:17;;;;;;;0.50;0.50;;;;;;;;;;5002881;28;20290;-61
2023/10/22 03:32:45;;;;;;;0.47;0.47;;;;;;;;;;4999212;28;20270;-61
2023/10/22 03:35:13;;;;;;;0.45;0.43;;;;;;;;;;4999110;28;20290;-61
2023/10/22 03:37:41;;;;;;;0.73;0.35;;;;;;;;;;4999181;28;20218;-61
2023/10/22 03:40:09;;;;;;;0.40;0.30;;;;;;;;;;4997985;28;20289;-61
2023/10/22 03:42:38;;;;;;;0.60;0.50;;;;;;;;;;4998519;28;20230;-61
2023/10/22 03:45:07;;;;;;;0.60;0.60;;;;;;;;;;4999189;28;20220;-61
2023/10/22 03:47:34;;;;;;;0.47;0.40;;;;;;;;;;4999150;28;20269;-61
2023/10/22 03:50:01;;;;;;;0.30;0.30;;;;;;;;;;4997767;28;20211;-61
2023/10/22 03:52:28;;;;;;;0.80;0.40;;;;;;;;;;4998862;28;20203;-61
2023/10/22 03:54:56;;;;;;;0.30;0.30;;;;;;;;;;5007601;28;20210;-61
2023/10/22 03:57:23;;;;;;;0.30;0.30;;;;;;;;;;5018384;28;20268;-61
2023/10/22 03:59:52;;;;;;;0.40;0.40;;;;;;;;;;5013011;28;20659;-61
2023/10/22 04:02:20;;;;;;;0.40;0.40;;;;;;;;;;4998830;28;20239;-61
2023/10/22 04:04:48;;;;;;;0.30;0.30;;;;;;;;;;4998302;28;20207;-61
2023/10/22 04:07:15;;;;;;;0.30;0.30;;;;;;;;;;4998796;28;20214;-61
2023/10/22 04:09:42;;;;;;;0.47;0.30;;;;;;;;;;4997691;28;20215;-61
2023/10/22 04:12:09;;;;;;;0.22;0.22;;;;;;;;;;4997819;28;20463;-61
2023/10/22 04:14:37;;;;;;;0.30;0.30;;;;;;;;;;4998462;28;20575;-61
2023/10/22 04:17:06;;;;;;;0.50;0.40;;;;;;;;;;4998361;28;20549;-61
2023/10/22 04:19:34;;;;;;;0.30;0.30;;;;;;;;;;4997654;28;20226;-61
2023/10/22 04:22:02;;;;;;;0.40;0.40;;;;;;;;;;5011831;28;20230;-61
2023/10/22 04:24:29;;;;;;;0.40;0.38;;;;;;;;;;4997729;28;20254;-61
2023/10/22 04:26:56;;;;;;;0.40;0.40;;;;;;;;;;4997054;28;20247;-61
2023/10/22 04:29:23;;;;;;;0.38;0.30;;;;;;;;;;4997266;28;20207;-61
2023/10/22 04:31:51;;;;;;;0.40;0.40;;;;;;;;;;4997755;28;20287;-61
2023/10/22 04:34:19;;;;;;;0.40;0.30;;;;;;;;;;4998124;28;20212;-61
2023/10/22 04:36:46;;;;;;;0.60;0.50;;;;;;;;;;4998041;28;20607;-61
2023/10/22 04:39:14;;;;;;;0.30;0.30;;;;;;;;;;4997482;28;20230;-61
2023/10/22 04:41:41;;;;;;;0.40;0.35;;;;;;;;;;5016885;28;20309;-61
2023/10/22 04:44:09;;;;;;;0.22;0.22;;;;;;;;;;5017727;28;20214;-61
2023/10/22 04:46:36;;;;;;;0.40;0.40;;;;;;;;;;5017501;28;20214;-61
2023/10/22 04:49:03;;;;;;;0.20;0.20;;;;;;;;;;5017691;28;20206;-61
2023/10/22 04:51:32;;;;;;;0.25;0.25;;;;;;;;;;4998900;28;20242;-61
2023/10/22 04:54:00;;;;;;;0.32;0.32;;;;;;;;;;4998092;28;20207;-61
2023/10/22 04:56:27;;;;;;;0.30;0.30;;;;;;;;;;4997806;28;20207;-61
2023/10/22 04:58:55;;;;;;;0.55;0.40;;;;;;;;;;4997774;28;20306;-61
2023/10/22 05:01:22;;;;;;;0.30;0.30;;;;;;;;;;4996273;28;20243;-61
2023/10/22 05:03:49;;;;;;;0.40;0.40;;;;;;;;;;4998126;28;20249;-61
2023/10/22 05:06:17;;;;;;;0.30;0.28;;;;;;;;;;4997657;28;20497;-61
2023/10/22 05:08:46;;;;;;;0.20;0.20;;;;;;;;;;4997504;28;20248;-61
2023/10/22 05:11:14;;;;;;;0.32;0.30;;;;;;;;;;5011864;28;20257;-61
2023/10/22 05:13:42;;;;;;;0.25;0.20;;;;;;;;;;5017479;28;20206;-61
2023/10/22 05:16:10;;;;;;;0.30;0.30;;;;;;;;;;5017024;28;20206;-61
2023/10/22 05:18:38;;;;;;;0.30;0.30;;;;;;;;;;5000323;28;20218;-61
2023/10/22 05:21:09;;;;;;;0.40;0.40;;;;;;;;;;5005124;28;20290;-61
2023/10/22 05:23:37;;;;;;;0.52;0.40;;;;;;;;;;4998098;28;20214;-61
2023/10/22 05:26:07;;;;;;;0.30;0.30;;;;;;;;;;4997413;28;20273;-61
2023/10/22 05:28:34;;;;;;;0.20;0.20;;;;;;;;;;4978011;28;20242;-61
2023/10/22 05:31:02;;;;;;;0.50;0.40;;;;;;;;;;4983619;28;20299;-61
2023/10/22 05:33:29;;;;;;;0.30;0.30;;;;;;;;;;4978090;28;20208;-61
2023/10/22 05:35:58;;;;;;;0.30;0.30;;;;;;;;;;4977736;28;20216;-61
2023/10/22 05:38:26;;;;;;;0.32;0.32;;;;;;;;;;4977280;28;20207;-61
2023/10/22 05:40:53;;;;;;;0.30;0.22;;;;;;;;;;4976740;28;20208;-61
2023/10/22 05:43:22;;;;;;;0.38;0.38;;;;;;;;;;4977416;28;20273;-61
2023/10/22 05:45:57;;;;;;;0.77;0.45;;;;;;;;;;4977475;28;20599;-61
2023/10/22 05:48:25;;;;;;;0.40;0.25;;;;;;;;;;4977893;28;20235;-61
2023/10/22 05:50:52;;;;;;;0.40;0.40;;;;;;;;;;4976300;28;20208;-61
2023/10/22 05:53:20;;;;;;;0.30;0.30;;;;;;;;;;4980460;28;20210;-61
2023/10/22 05:55:47;;;;;;;0.65;0.45;;;;;;;;;;4981217;28;20274;-61
2023/10/22 05:58:15;;;;;;;0.30;0.30;;;;;;;;;;4981117;28;20215;-61
2023/10/22 06:00:49;;;;;;;0.30;0.30;;;;;;;;;;4980497;28;20208;-61
2023/10/22 06:03:16;;;;;;;0.40;0.30;;;;;;;;;;4981174;28;20239;-61
2023/10/22 06:05:44;;;;;;;0.40;0.30;;;;;;;;;;4981116;28;20310;-61
2023/10/22 06:08:11;;;;;;;0.47;0.47;;;;;;;;;;4981435;28;20210;-61
2023/10/22 06:10:41;;;;;;;0.30;0.30;;;;;;;;;;4991626;28;20478;-61
2023/10/22 06:13:08;;;;;;;0.40;0.40;;;;;;;;;;4984146;28;20568;-61
2023/10/22 06:15:36;;;;;;;0.30;0.30;;;;;;;;;;4981659;28;20541;-61
2023/10/22 06:18:05;;;;;;;0.30;0.30;;;;;;;;;;4980979;28;20291;-61
2023/10/22 06:20:33;;;;;;;0.30;0.30;;;;;;;;;;4980121;28;20302;-60
2023/10/22 06:23:00;;;;;;;0.40;0.40;;;;;;;;;;4981040;28;20235;-60
2023/10/22 06:25:28;;;;;;;0.40;0.32;;;;;;;;;;4980352;28;20319;-60
2023/10/22 06:27:56;;;;;;;0.32;0.32;;;;;;;;;;4994629;28;20564;-60
2023/10/22 06:30:25;;;;;;;0.40;0.40;;;;;;;;;;4999075;28;20221;-60
2023/10/22 06:32:52;;;;;;;1.00;0.30;;;;;;;;;;5000270;28;20203;-60
2023/10/22 06:35:21;;;;;;;0.30;0.30;;;;;;;;;;4999883;28;20242;-60
2023/10/22 06:37:50;;;;;;;0.30;0.30;;;;;;;;;;5000330;28;20215;-60
2023/10/22 06:40:18;;;;;;;0.30;0.30;;;;;;;;;;4999346;28;20215;-60
2023/10/22 06:42:45;;;;;;;0.60;0.38;;;;;;;;;;4999552;28;20237;-60
2023/10/22 06:45:14;;;;;;;0.30;0.30;;;;;;;;;;4998989;28;20593;-60
2023/10/22 06:47:42;;;;;;;0.30;0.30;;;;;;;;;;4999458;28;20258;-60
2023/10/22 06:50:11;;;;;;;0.30;0.30;;;;;;;;;;4998537;28;20207;-60
2023/10/22 06:52:41;;;;;;;0.30;0.30;;;;;;;;;;5016437;28;20489;-60
2023/10/22 06:55:09;;;;;;;0.40;0.35;;;;;;;;;;5019342;28;20260;-60
2023/10/22 06:57:38;;;;;;;0.30;0.30;;;;;;;;;;5019064;28;20479;-60
2023/10/22 07:00:08;;;;;;;0.45;0.30;;;;;;;;;;5011279;28;20290;-60
2023/10/22 07:02:35;;;;;;;0.35;0.32;;;;;;;;;;4997924;28;20235;-60
2023/10/22 07:05:02;;;;;;;0.40;0.40;;;;;;;;;;4997544;28;20301;-60
2023/10/22 07:07:30;;;;;;;0.30;0.30;;;;;;;;;;4998861;28;20203;-60
2023/10/22 07:09:58;;;;;;;0.32;0.32;;;;;;;;;;4997726;28;20591;-60
2023/10/22 07:12:27;;;;;;;0.30;0.30;;;;;;;;;;4998839;28;20229;-61
2023/10/22 07:14:55;;;;;;;0.30;0.30;;;;;;;;;;4998756;28;20318;-61
2023/10/22 07:17:22;;;;;;;0.30;0.30;;;;;;;;;;4999703;28;20207;-61
2023/10/22 07:19:50;;;;;;;0.30;0.30;;;;;;;;;;5003163;28;20276;-61
2023/10/22 07:22:17;;;;;;;0.30;0.30;;;;;;;;;;5018537;28;20641;-61
2023/10/22 07:24:45;;;;;;;0.57;0.50;;;;;;;;;;5019162;28;20506;-61
2023/10/22 07:27:14;;;;;;;1.05;0.50;;;;;;;;;;5018507;28;20246;-61
2023/10/22 07:29:41;;;;;;;0.32;0.32;;;;;;;;;;5000553;28;20219;-61
2023/10/22 07:32:10;;;;;;;0.30;0.30;;;;;;;;;;4998195;28;20277;-61
2023/10/22 07:34:37;;;;;;;0.40;0.40;;;;;;;;;;4998288;28;20302;-61
2023/10/22 07:37:05;;;;;;;0.40;0.40;;;;;;;;;;4998504;28;20289;-60
2023/10/22 07:39:33;;;;;;;0.52;0.52;;;;;;;;;;4997270;28;21770;-61
2023/10/22 07:42:00;;;;;;;0.40;0.40;;;;;;;;;;5014202;28;20614;-61
2023/10/22 07:44:29;;;;;;;0.52;0.25;;;;;;;;;;4998715;28;20207;-61
2023/10/22 07:46:56;;;;;;;0.50;0.30;;;;;;;;;;4998579;28;20223;-61
2023/10/22 07:49:24;;;;;;;0.43;0.40;;;;;;;;;;4997559;28;20273;-61
2023/10/22 07:51:51;;;;;;;1.02;0.55;;;;;;;;;;4997931;28;20211;-61
2023/10/22 07:54:19;;;;;;;0.30;0.30;;;;;;;;;;4998409;28;20215;-61
2023/10/22 07:56:46;;;;;;;0.30;0.30;;;;;;;;;;4997953;28;20218;-61
2023/10/22 07:59:13;;;;;;;0.85;0.30;;;;;;;;;;4997957;28;20218;-61
2023/10/22 08:01:42;;;;;;;0.30;0.30;;;;;;;;;;5014673;28;20217;-61
2023/10/22 08:04:09;;;;;;;0.88;0.32;;;;;;;;;;5017906;28;20237;-61
2023/10/22 08:06:37;;;;;;;0.55;0.47;;;;;;;;;;5018470;28;20206;-61
2023/10/22 08:09:04;;;;;;;0.50;0.30;;;;;;;;;;5016904;28;20210;-60
2023/10/22 08:11:32;;;;;;;0.50;0.40;;;;;;;;;;4997496;28;20211;-60
2023/10/22 08:13:59;;;;;;;0.60;0.60;;;;;;;;;;4997891;28;20210;-60
2023/10/22 08:16:26;;;;;;;0.93;0.40;;;;;;;;;;4997456;28;20273;-61
2023/10/22 08:18:55;;;;;;;0.45;0.40;;;;;;;;;;4997684;28;20211;-61
2023/10/22 08:21:23;;;;;;;0.30;0.30;;;;;;;;;;5011168;28;20214;-61
2023/10/22 08:23:50;;;;;;;0.77;0.45;;;;;;;;;;5013227;28;20325;-61
2023/10/22 08:26:17;;;;;;;1.00;0.57;;;;;;;;;;4997521;28;20207;-61
2023/10/22 08:28:45;;;;;;;0.50;0.50;;;;;;;;;;4997904;28;20299;-60
2023/10/22 08:31:12;;;;;;;0.60;0.60;;;;;;;;;;4995737;28;20550;-61
2023/10/22 08:33:40;;;;;;;0.50;0.50;;;;;;;;;;4997254;28;20583;-61
2023/10/22 08:36:09;;;;;;;0.70;0.70;;;;;;;;;;4996739;28;20207;-61
2023/10/22 08:38:36;;;;;;;0.65;0.40;;;;;;;;;;4997271;28;20207;-61
2023/10/22 08:41:06;;;;;;;0.50;0.50;;;;;;;;;;4995120;28;20238;-61
2023/10/22 08:43:34;;;;;;;0.60;0.50;;;;;;;;;;4996975;28;20618;-61
2023/10/22 08:46:01;;;;;;;0.80;0.60;;;;;;;;;;4997418;28;20207;-61
2023/10/22 08:48:29;;;;;;;1.25;0.60;;;;;;;;;;4997347;28;20207;-61
2023/10/22 08:50:56;;;;;;;0.40;0.40;;;;;;;;;;4998282;28;20214;-61
2023/10/22 08:53:25;;;;;;;0.60;0.50;;;;;;;;;;5014113;28;20543;-61
2023/10/22 08:55:52;;;;;;;0.73;0.52;;;;;;;;;;5016400;28;20790;-61
2023/10/22 08:58:20;;;;;;;0.95;0.60;;;;;;;;;;5016681;28;20206;-61
2023/10/22 09:00:49;;;;;;;0.60;0.60;;;;;;;;;;5013293;28;20217;-61
2023/10/22 09:03:16;;;;;;;1.60;0.65;;;;;;;;;;5016391;28;20621;-61
2023/10/22 09:05:45;;;;;;;1.70;0.70;;;;;;;;;;5000069;28;20214;-61
2023/10/22 09:08:12;;;;;;;4.97;0.80;;;;;;;;;;4997004;28;20207;-61
2023/10/22 09:10:41;;;;;;;0.90;0.45;;;;;;;;;;5004315;28;20206;-61
2023/10/22 09:13:12;;;;;;;3.33;0.93;;;;;;;;;;5016712;28;20213;-61
2023/10/22 09:15:40;;;;;;;2.30;0.90;;;;;;;;;;4998157;28;20207;-61
2023/10/22 09:18:07;;;;;;;1.27;0.82;;;;;;;;;;4995569;28;20579;-61
2023/10/22 09:20:35;;;;;;;5.00;0.90;;;;;;;;;;4998146;28;20207;-61
2023/10/22 09:23:16;;;;;;;1.63;0.57;;;;;;;;;;5001390;28;20223;-61
2023/10/22 09:25:47;;;;;;;1.38;0.70;;;;;;;;;;4994336;28;20203;-61
2023/10/22 09:28:20;;;;;;;1.35;0.70;;;;;;;;;;4998834;28;20242;-61
2023/10/22 09:30:47;;;;;;;1.45;0.80;;;;;;;;;;5000396;28;20505;-60
2023/10/22 09:33:17;;;;;;;2.85;0.70;;;;;;;;;;4999702;28;20203;-60
2023/10/22 09:35:58;;;;;;;0.88;0.75;;;;;;;;;;5000509;28;20318;-60
2023/10/22 09:38:40;;;;;;;1.02;0.80;;;;;;;;;;4999845;28;20207;-60
2023/10/22 09:41:09;;;;;;;2.60;0.90;;;;;;;;;;4999096;28;20274;-60
2023/10/22 09:43:37;;;;;;;1.10;0.60;;;;;;;;;;4998886;28;20258;-60
2023/10/22 09:46:06;;;;;;;3.30;0.85;;;;;;;;;;4996069;28;20207;-60
2023/10/22 09:48:35;;;;;;;2.78;0.60;;;;;;;;;;4997691;28;20273;-60
2023/10/22 09:51:04;;;;;;;2.75;0.80;;;;;;;;;;4996707;28;20527;-61
2023/10/22 09:53:34;;;;;;;1.23;0.85;;;;;;;;;;4996704;28;20286;-60
2023/10/22 09:56:06;;;;;;;4.10;0.70;;;;;;;;;;4999696;28;20218;-61
2023/10/22 09:58:41;;;;;;;1.60;0.70;;;;;;;;;;4999408;28;20214;-61
2023/10/22 10:01:09;;;;;;;1.60;0.82;;;;;;;;;;4998376;28;20207;-61
2023/10/22 10:03:36;;;;;;;1.02;0.70;;;;;;;;;;4999068;28;20503;-61
2023/10/22 10:06:06;;;;;;;1.95;0.80;;;;;;;;;;4999324;28;20210;-61
2023/10/22 10:08:34;;;;;;;1.52;0.73;;;;;;;;;;4998913;28;20213;-61
2023/10/22 10:11:02;;;;;;;2.53;0.90;;;;;;;;;;4998201;28;20222;-61
2023/10/22 10:13:30;;;;;;;1.33;0.80;;;;;;;;;;4997931;28;20209;-61
2023/10/22 10:16:02;;;;;;;1.65;0.82;;;;;;;;;;4999576;28;20213;-61
2023/10/22 10:18:44;;;;;;;3.75;1.10;;;;;;;;;;4999277;28;20218;-61
2023/10/22 10:21:26;;;;;;;1.90;0.90;;;;;;;;;;4997783;28;20306;-61
2023/10/22 10:24:12;;;;;;;1.35;0.68;;;;;;;;;;4998485;28;20317;-61
2023/10/22 10:26:40;;;;;;;2.08;1.00;;;;;;;;;;4998382;28;20234;-61
2023/10/22 10:29:07;;;;;;;1.27;1.00;;;;;;;;;;4999124;28;20273;-61
2023/10/22 10:31:36;;;;;;;1.67;0.68;;;;;;;;;;5015159;28;20198;-61
2023/10/22 10:34:04;;;;;;;1.65;0.85;;;;;;;;;;5019459;28;20289;-60
2023/10/22 10:36:32;;;;;;;2.25;1.00;;;;;;;;;;5018526;28;20214;-60
2023/10/22 10:39:15;;;;;;;2.60;1.10;;;;;;;;;;5018280;28;20206;-60
2023/10/22 10:41:55;;;;;;;2.75;1.00;;;;;;;;;;4998069;28;20254;-60
2023/10/22 10:44:23;;;;;;;1.73;0.90;;;;;;;;;;5001215;28;20233;-60
2023/10/22 10:46:52;;;;;;;2.47;0.93;;;;;;;;;;4998914;28;20211;-61
2023/10/22 10:49:34;;;;;;;2.00;0.80;;;;;;;;;;4998964;28;20490;-61
2023/10/22 10:52:01;;;;;;;1.65;1.02;;;;;;;;;;5001591;28;20206;-61
2023/10/22 10:54:28;;;;;;;2.83;1.00;;;;;;;;;;5014921;28;20571;-61
2023/10/22 10:56:58;;;;;;;2.30;1.10;;;;;;;;;;4999179;28;20199;-61
2023/10/22 10:59:25;;;;;;;2.55;1.00;;;;;;;;;;4998649;28;20207;-61
2023/10/22 11:02:00;;;;;;;2.47;1.25;;;;;;;;;;5015487;28;20203;-61
2023/10/22 11:04:27;;;;;;;2.13;1.00;;;;;;;;;;4998289;28;20237;-61
2023/10/22 11:06:55;;;;;;;1.50;1.02;;;;;;;;;;4998878;28;20611;-61
2023/10/22 11:09:22;;;;;;;2.15;1.00;;;;;;;;;;4998392;28;20203;-60
2023/10/22 11:11:56;;;;;;;2.42;0.93;;;;;;;;;;5016404;28;20206;-60
2023/10/22 11:14:24;;;;;;;1.80;1.10;;;;;;;;;;5005624;28;20206;-60
2023/10/22 11:16:56;;;;;;;2.78;1.30;;;;;;;;;;4998616;28;20326;-60
2023/10/22 11:19:26;;;;;;;1.45;1.08;;;;;;;;;;4998765;28;20214;-60
2023/10/22 11:21:54;;;;;;;1.80;1.13;;;;;;;;;;4997292;28;20217;-60
2023/10/22 11:24:22;;;;;;;1.92;0.90;;;;;;;;;;4997970;28;20230;-60
2023/10/22 11:26:51;;;;;;;2.63;1.10;;;;;;;;;;4998378;28;20602;-61
2023/10/22 11:29:19;;;;;;;2.15;1.05;;;;;;;;;;4997324;28;20210;-61
2023/10/22 11:31:54;;;;;;;3.53;1.30;;;;;;;;;;4997109;28;20203;-61
2023/10/22 11:34:21;;;;;;;3.40;1.33;;;;;;;;;;4998215;28;20205;-61
2023/10/22 11:36:50;;;;;;;2.85;0.90;;;;;;;;;;4998093;28;20318;-61
2023/10/22 11:39:19;;;;;;;2.42;0.93;;;;;;;;;;4998296;28;20213;-61
2023/10/22 11:41:46;;;;;;;1.85;0.98;;;;;;;;;;5015411;28;20257;-61
2023/10/22 11:44:28;;;;;;;1.58;0.82;;;;;;;;;;5016328;28;20731;-61
2023/10/22 11:46:56;;;;;;;2.45;0.93;;;;;;;;;;5017304;28;20538;-61
2023/10/22 11:49:23;;;;;;;2.47;0.93;;;;;;;;;;5013632;28;20238;-61
2023/10/22 11:51:52;;;;;;;1.55;0.88;;;;;;;;;;5015654;28;20221;-61
2023/10/22 11:54:20;;;;;;;1.70;1.10;;;;;;;;;;4996444;28;20222;-61
2023/10/22 11:56:47;;;;;;;2.70;0.80;;;;;;;;;;4997610;28;20217;-61
2023/10/22 11:59:15;;;;;;;2.45;0.90;;;;;;;;;;4997127;28;20203;-61
2023/10/22 12:01:42;;;;;;;2.05;0.73;;;;;;;;;;4996442;28;20289;-61
2023/10/22 12:04:10;;;;;;;2.10;0.88;;;;;;;;;;4996502;28;20515;-61
2023/10/22 12:06:38;;;;;;;1.73;0.65;;;;;;;;;;4997318;28;20238;-61
2023/10/22 12:09:06;;;;;;;2.00;0.88;;;;;;;;;;4997437;28;20302;-61
2023/10/22 12:11:34;;;;;;;1.15;0.70;;;;;;;;;;5012268;28;20206;-61
2023/10/22 12:14:02;;;;;;;1.55;0.80;;;;;;;;;;4999879;28;20203;-61
2023/10/22 12:16:30;;;;;;;1.20;0.80;;;;;;;;;;4997423;28;20583;-61
2023/10/22 12:18:57;;;;;;;3.30;1.20;;;;;;;;;;4997359;28;20260;-61
2023/10/22 12:21:26;;;;;;;3.28;0.90;;;;;;;;;;5011167;28;20297;-61
2023/10/22 12:23:55;;;;;;;2.22;0.73;;;;;;;;;;5016009;28;20329;-61
2023/10/22 12:26:23;;;;;;;0.98;0.80;;;;;;;;;;5015663;28;20220;-60
2023/10/22 12:28:51;;;;;;;2.53;0.90;;;;;;;;;;5016094;28;20236;-60
2023/10/22 12:31:18;;;;;;;2.45;1.10;;;;;;;;;;4997321;28;20607;-60
2023/10/22 12:33:46;;;;;;;4.07;1.15;;;;;;;;;;4996370;28;20199;-60
2023/10/22 12:36:13;;;;;;;2.40;0.95;;;;;;;;;;4996747;28;20298;-60
2023/10/22 12:38:41;;;;;;;1.63;0.90;;;;;;;;;;4995686;28;20298;-61
2023/10/22 12:41:08;;;;;;;1.15;0.70;;;;;;;;;;5008437;28;20210;-61
2023/10/22 12:43:37;;;;;;;1.35;0.80;;;;;;;;;;5003158;28;20587;-61
2023/10/22 12:46:05;;;;;;;1.63;0.90;;;;;;;;;;4996086;28;20575;-61
2023/10/22 12:48:32;;;;;;;2.35;0.90;;;;;;;;;;4995940;28;20279;-61
2023/10/22 12:51:00;;;;;;;1.45;0.88;;;;;;;;;;4994658;28;20606;-61
2023/10/22 12:53:28;;;;;;;2.38;0.80;;;;;;;;;;4994281;28;20716;-61
2023/10/22 12:55:57;;;;;;;1.70;0.80;;;;;;;;;;4994873;28;20234;-61
2023/10/22 12:58:25;;;;;;;2.22;0.80;;;;;;;;;;4995468;28;20595;-61
2023/10/22 13:00:54;;;;;;;1.48;0.90;;;;;;;;;;5006805;28;20230;-61
2023/10/22 13:03:22;;;;;;;1.88;0.90;;;;;;;;;;5015185;28;20305;-61
2023/10/22 13:05:51;;;;;;;1.65;0.90;;;;;;;;;;5015575;28;20202;-61
2023/10/22 13:08:18;;;;;;;1.80;0.82;;;;;;;;;;5015313;28;20214;-61
2023/10/22 13:10:48;;;;;;;2.80;0.85;;;;;;;;;;5002769;28;20608;-61
2023/10/22 13:13:16;;;;;;;1.73;0.73;;;;;;;;;;4995612;28;20211;-61
2023/10/22 13:15:43;;;;;;;2.65;1.08;;;;;;;;;;4996561;28;20210;-61
2023/10/22 13:18:12;;;;;;;1.38;0.80;;;;;;;;;;4996512;28;20207;-61
2023/10/22 13:20:40;;;;;;;1.40;0.70;;;;;;;;;;4993673;28;20218;-61
2023/10/22 13:23:07;;;;;;;2.50;0.90;;;;;;;;;;4995710;28;20211;-61
2023/10/22 13:25:35;;;;;;;1.50;0.93;;;;;;;;;;4994760;28;20223;-61
2023/10/22 13:28:03;;;;;;;1.10;0.82;;;;;;;;;;4995907;28;20481;-61
2023/10/22 13:30:31;;;;;;;2.05;0.75;;;;;;;;;;5003121;28;20292;-61
2023/10/22 13:32:59;;;;;;;1.65;0.85;;;;;;;;;;5014722;28;20206;-61
2023/10/22 13:35:30;;;;;;;2.28;0.80;;;;;;;;;;5015373;28;20206;-61
2023/10/22 13:37:58;;;;;;;0.70;0.70;;;;;;;;;;5007285;28;20214;-61
2023/10/22 13:40:27;;;;;;;2.55;1.00;;;;;;;;;;5002656;28;20202;-61
2023/10/22 13:42:56;;;;;;;1.55;0.77;;;;;;;;;;5015219;28;20206;-61
2023/10/22 13:45:23;;;;;;;1.13;0.63;;;;;;;;;;5014898;28;20222;-61
2023/10/22 13:47:52;;;;;;;2.78;0.73;;;;;;;;;;5015575;28;20557;-61
2023/10/22 13:50:20;;;;;;;1.25;0.77;;;;;;;;;;5005752;28;20203;-61
2023/10/22 13:52:49;;;;;;;1.27;0.68;;;;;;;;;;4994047;28;20309;-61
2023/10/22 13:55:16;;;;;;;1.25;0.60;;;;;;;;;;4995906;28;21102;-61
2023/10/22 13:57:43;;;;;;;1.00;0.70;;;;;;;;;;4995285;28;20238;-60
2023/10/22 14:00:11;;;;;;;2.20;0.75;;;;;;;;;;4994481;28;20215;-60
2023/10/22 14:02:39;;;;;;;2.80;0.90;;;;;;;;;;4995671;28;20237;-60
2023/10/22 14:05:10;;;;;;;1.60;0.88;;;;;;;;;;4996228;28;20592;-60
2023/10/22 14:07:37;;;;;;;1.40;0.63;;;;;;;;;;4995244;28;20308;-60
2023/10/22 14:10:07;;;;;;;1.60;0.70;;;;;;;;;;4995758;28;20587;-60
2023/10/22 14:12:34;;;;;;;1.88;0.77;;;;;;;;;;4995996;28;20218;-60
2023/10/22 14:15:03;;;;;;;1.40;0.88;;;;;;;;;;4999042;28;20294;-61
2023/10/22 14:17:30;;;;;;;1.45;0.80;;;;;;;;;;4998817;28;20280;-61
2023/10/22 14:19:58;;;;;;;1.20;0.85;;;;;;;;;;4999459;28;20553;-61
2023/10/22 14:22:25;;;;;;;1.65;0.70;;;;;;;;;;4998696;28;20211;-61
2023/10/22 14:24:54;;;;;;;1.98;0.80;;;;;;;;;;4998863;28;20330;-61
2023/10/22 14:27:23;;;;;;;1.17;0.75;;;;;;;;;;4998228;28;20231;-61
2023/10/22 14:29:51;;;;;;;1.23;0.70;;;;;;;;;;4996871;28;20214;-61
2023/10/22 14:32:18;;;;;;;1.58;0.77;;;;;;;;;;4998156;28;20207;-61
2023/10/22 14:34:46;;;;;;;2.00;0.85;;;;;;;;;;4998158;28;20203;-61
2023/10/22 14:37:13;;;;;;;1.67;0.80;;;;;;;;;;4998407;28;20220;-61
2023/10/22 14:39:41;;;;;;;1.55;0.80;;;;;;;;;;4998191;28;20294;-61
2023/10/22 14:42:08;;;;;;;2.47;1.00;;;;;;;;;;5018246;28;20246;-61
2023/10/22 14:44:37;;;;;;;2.47;1.00;;;;;;;;;;5017885;28;20218;-61
2023/10/22 14:47:05;;;;;;;1.83;0.80;;;;;;;;;;5012961;28;20207;-61
2023/10/22 14:49:32;;;;;;;1.55;0.90;;;;;;;;;;5005011;28;20294;-61